Falls International Airport International Falls US
ICAO: KINL
IATA: INL
Category: Medium
Scheduled Services: Yes

Elevation: 1185 ft
TransAlt. 18000 ft.

Airport Communications:
ASOS:120
MINNEAPOLIS CNTR:120.9
PRINCETON RDO:123.6
CTAF/UNICOM:122.8

KINL Zoom In..

If Map Doesn't Load, Click Here

Runways:

(A) RW 04 length 2999 ft width 75 ft
---- / hdg 39

(B) RW 13 length 7400 ft width 150 ft
ILS 109.10 / hdg 133

(C) RW 22 length 2999 ft width 75 ft
---- / hdg 219

(D) RW 31 length 7400 ft width 150 ft
ILS 111.95 / hdg 313

Location; KINL
Day. 23 / Time. 21.26 Zulu
* Altimeter: 30.15
* Temperature: 06° c. 42.8°f.
* Wind from: 080° Speed 09 kn.
Dewpoint: 05° c.
Visibility: 10 Statute Miles.
Clouds: Overcast 1000 ft.

KINL 232126Z AUTO 08009KT 10SM OVC010 06/05 A3015 RMK AO2 T00610050


Wind From 080°
Speed 09 kn.

 
 
jpsmedia.com for Web Design worldairports.se 2018   terms of use